createdAt,value
2023-04-03T00:01:40.063Z,99320
2023-04-03T00:03:40.408Z,99320
2023-04-03T00:05:40.127Z,99320
2023-04-03T00:07:40.198Z,99320
2023-04-03T00:09:40.270Z,99320
2023-04-03T00:11:40.373Z,99320
2023-04-03T00:13:40.596Z,99320
2023-04-03T00:15:40.924Z,99330
2023-04-03T00:17:40.523Z,99330
2023-04-03T00:19:40.551Z,99330
2023-04-03T00:21:40.568Z,99330
2023-04-03T00:23:40.675Z,99330
2023-04-03T00:25:40.928Z,99330
2023-04-03T00:27:41.226Z,99330
2023-04-03T00:29:40.857Z,99330
2023-04-03T00:31:40.957Z,99340
2023-04-03T00:33:41.717Z,99340
2023-04-03T00:35:41.633Z,99340
2023-04-03T00:37:42.759Z,99340
2023-04-03T00:39:41.338Z,99340
2023-04-03T00:41:41.375Z,99340
2023-04-03T00:43:41.892Z,99340
2023-04-03T00:45:43.239Z,99340
2023-04-03T00:47:42.150Z,99340
2023-04-03T00:49:42.904Z,99340
2023-04-03T00:51:41.507Z,99340
2023-04-03T00:53:46.250Z,99340
2023-04-03T00:55:43.261Z,99340
2023-04-03T00:57:42.821Z,99340
2023-04-03T00:59:47.072Z,99340
2023-04-03T01:01:43.080Z,99340
2023-04-03T01:03:42.429Z,99340
2023-04-03T01:05:42.005Z,99340
2023-04-03T01:07:41.959Z,99340
2023-04-03T01:09:43.324Z,99340
2023-04-03T01:11:42.212Z,99340
2023-04-03T01:13:42.772Z,99340
2023-04-03T01:15:42.158Z,99340
2023-04-03T01:17:44.900Z,99340
2023-04-03T01:19:54.071Z,99340
2023-04-03T01:22:04.934Z,99340
2023-04-03T01:23:57.958Z,99340
2023-04-03T01:25:45.151Z,99340
2023-04-03T01:27:42.555Z,99340
2023-04-03T01:29:44.454Z,99340
2023-04-03T01:31:47.788Z,99340
2023-04-03T01:33:43.806Z,99340
2023-04-03T01:35:43.132Z,99340
2023-04-03T01:37:43.769Z,99340
2023-04-03T01:39:42.976Z,99340
2023-04-03T01:41:47.452Z,99340
2023-04-03T01:43:43.341Z,99340
2023-04-03T01:45:43.685Z,99340
2023-04-03T01:47:44.013Z,99340
2023-04-03T01:49:43.433Z,99340
2023-04-03T01:51:43.420Z,99350
2023-04-03T01:53:43.478Z,99350
2023-04-03T01:55:43.785Z,99350
2023-04-03T01:57:43.659Z,99350
2023-04-03T01:59:44.029Z,99350
2023-04-03T02:01:43.812Z,99350
2023-04-03T02:03:43.960Z,99350
2023-04-03T02:05:44.616Z,99350
2023-04-03T02:07:44.045Z,99350
2023-04-03T02:09:44.042Z,99350
2023-04-03T02:11:44.364Z,99360
2023-04-03T02:13:44.172Z,99360
2023-04-03T02:15:44.097Z,99360
2023-04-03T02:17:45.582Z,99360
2023-04-03T02:19:44.277Z,99360
2023-04-03T02:21:44.322Z,99360
2023-04-03T02:23:44.411Z,99360
2023-04-03T02:25:44.446Z,99360
2023-04-03T02:27:44.500Z,99360
2023-04-03T02:29:44.800Z,99370
2023-04-03T02:31:44.654Z,99370
2023-04-03T02:33:45.828Z,99370
2023-04-03T02:35:44.901Z,99370
2023-04-03T02:37:44.882Z,99370
2023-04-03T02:39:45.564Z,99370
2023-04-03T02:41:48.894Z,99370
2023-04-03T02:43:45.146Z,99370
2023-04-03T02:45:45.511Z,99370
2023-04-03T02:47:45.199Z,99370
2023-04-03T02:49:45.294Z,99370
2023-04-03T02:51:45.942Z,99370
2023-04-03T02:53:48.507Z,99380
2023-04-03T02:55:46.169Z,99380
2023-04-03T02:57:46.458Z,99380
2023-04-03T02:59:45.879Z,99380
2023-04-03T03:01:45.855Z,99380
2023-04-03T03:03:45.910Z,99380
2023-04-03T03:05:46.029Z,99380
2023-04-03T03:07:45.949Z,99380
2023-04-03T03:09:46.114Z,99380
2023-04-03T03:11:46.064Z,99380
2023-04-03T03:13:46.268Z,99380
2023-04-03T03:15:46.238Z,99380
2023-04-03T03:17:46.312Z,99380
2023-04-03T03:19:46.496Z,99380
2023-04-03T03:21:46.495Z,99380
2023-04-03T03:23:46.663Z,99380
2023-04-03T03:25:46.683Z,99380
2023-04-03T03:27:47.106Z,99380
2023-04-03T03:29:47.725Z,99380
2023-04-03T03:31:46.967Z,99380
2023-04-03T03:33:47.216Z,99380
2023-04-03T03:35:47.141Z,99380
2023-04-03T03:37:47.199Z,99390
2023-04-03T03:39:47.299Z,99390
2023-04-03T03:41:48.268Z,99390
2023-04-03T03:43:47.789Z,99390
2023-04-03T03:45:52.125Z,99390
2023-04-03T03:47:47.670Z,99390
2023-04-03T03:49:48.813Z,99400
2023-04-03T03:51:47.908Z,99400
2023-04-03T03:53:49.652Z,99400
2023-04-03T03:55:48.001Z,99400
2023-04-03T03:57:48.057Z,99400
2023-04-03T03:59:48.115Z,99400
2023-04-03T04:01:48.294Z,99400
2023-04-03T04:03:51.930Z,99400
2023-04-03T04:05:48.470Z,99400
2023-04-03T04:07:48.587Z,99400
2023-04-03T04:09:48.697Z,99400
2023-04-03T04:11:50.970Z,99400
2023-04-03T04:13:49.001Z,99400
2023-04-03T04:15:48.999Z,99400
2023-04-03T04:17:49.621Z,99400
2023-04-03T04:19:49.123Z,99400
2023-04-03T04:21:49.418Z,99400
2023-04-03T04:23:49.506Z,99400
2023-04-03T04:25:49.907Z,99400
2023-04-03T04:27:49.645Z,99400
2023-04-03T04:29:50.381Z,99400
2023-04-03T04:31:50.346Z,99400
2023-04-03T04:33:50.090Z,99400
2023-04-03T04:35:50.712Z,99400
2023-04-03T04:37:50.525Z,99410
2023-04-03T04:39:50.105Z,99410
2023-04-03T04:41:50.120Z,99410
2023-04-03T04:43:50.643Z,99410
2023-04-03T04:46:01.304Z,99410
2023-04-03T04:47:50.350Z,99410
2023-04-03T04:49:50.815Z,99410
2023-04-03T04:51:52.228Z,99410
2023-04-03T04:53:51.354Z,99410
2023-04-03T04:55:50.737Z,99410
2023-04-03T04:57:51.165Z,99410
2023-04-03T04:59:51.825Z,99410
2023-04-03T05:01:51.250Z,99410
2023-04-03T05:03:51.932Z,99410
2023-04-03T05:05:51.562Z,99420
2023-04-03T05:07:51.416Z,99420
2023-04-03T05:09:51.671Z,99420
2023-04-03T05:11:53.039Z,99420
2023-04-03T05:13:53.597Z,99420
2023-04-03T05:15:52.106Z,99420
2023-04-03T05:17:51.814Z,99420
2023-04-03T05:19:52.538Z,99420
2023-04-03T05:21:52.547Z,99420
2023-04-03T05:23:52.570Z,99420
2023-04-03T05:25:53.041Z,99420
2023-04-03T05:27:52.492Z,99420
2023-04-03T05:29:54.946Z,99420
2023-04-03T05:31:52.827Z,99420
2023-04-03T05:33:52.709Z,99420
2023-04-03T05:35:57.619Z,99420
2023-04-03T05:37:52.860Z,99420
2023-04-03T05:39:53.029Z,99420
2023-04-03T05:41:52.991Z,99420
2023-04-03T05:43:53.916Z,99430
2023-04-03T05:45:53.589Z,99430
2023-04-03T05:47:53.518Z,99430
2023-04-03T05:49:53.960Z,99430
2023-04-03T05:51:58.046Z,99430
2023-04-03T05:54:03.271Z,99430
2023-04-03T05:55:53.911Z,99430
2023-04-03T05:57:54.508Z,99430
2023-04-03T05:59:54.537Z,99430
2023-04-03T06:01:54.991Z,99430
2023-04-03T06:03:54.517Z,99440
2023-04-03T06:05:54.593Z,99440
2023-04-03T06:07:54.741Z,99440
2023-04-03T06:09:57.799Z,99440
2023-04-03T06:11:56.832Z,99440
2023-04-03T06:13:55.135Z,99440
2023-04-03T06:15:56.662Z,99440
2023-04-03T06:17:55.915Z,99450
2023-04-03T06:19:55.809Z,99450
2023-04-03T06:21:56.204Z,99450
2023-04-03T06:23:56.219Z,99450
2023-04-03T06:25:56.366Z,99450
2023-04-03T06:27:56.539Z,99450
2023-04-03T06:29:56.813Z,99450
2023-04-03T06:31:57.588Z,99450
2023-04-03T06:33:57.123Z,99450
2023-04-03T06:35:58.461Z,99450
2023-04-03T06:37:57.544Z,99450
2023-04-03T06:39:58.266Z,99450
2023-04-03T06:42:04.514Z,99460
2023-04-03T06:43:58.136Z,99460
2023-04-03T06:45:58.275Z,99460
2023-04-03T06:47:58.628Z,99460
2023-04-03T06:49:58.918Z,99460
2023-04-03T06:52:00.323Z,99460
2023-04-03T06:54:00.149Z,99460
2023-04-03T06:55:59.235Z,99460
2023-04-03T06:57:59.551Z,99470
2023-04-03T06:59:59.595Z,99470
2023-04-03T07:01:59.830Z,99470
2023-04-03T07:03:59.969Z,99470
2023-04-03T07:06:00.355Z,99470
2023-04-03T07:08:00.348Z,99470
2023-04-03T07:10:00.444Z,99470
2023-04-03T07:12:00.617Z,99480
2023-04-03T07:14:00.840Z,99480
2023-04-03T07:16:01.208Z,99480
2023-04-03T07:18:01.096Z,99480
2023-04-03T07:20:05.476Z,99480
2023-04-03T07:22:01.426Z,99480
2023-04-03T07:24:01.744Z,99480
2023-04-03T07:26:02.111Z,99480
2023-04-03T07:28:02.182Z,99480
2023-04-03T07:30:02.667Z,99480
2023-04-03T07:32:02.578Z,99480
2023-04-03T07:34:02.866Z,99480
2023-04-03T07:36:03.641Z,99480
2023-04-03T07:38:03.280Z,99480
2023-04-03T07:40:04.257Z,99480
2023-04-03T07:42:03.830Z,99480
2023-04-03T07:44:03.846Z,99480
2023-04-03T07:46:05.733Z,99480
2023-04-03T07:48:04.989Z,99480
2023-04-03T07:50:05.898Z,99480
2023-04-03T07:52:04.824Z,99480
2023-04-03T07:54:05.059Z,99480
2023-04-03T07:56:05.634Z,99480
2023-04-03T07:58:05.594Z,99480
2023-04-03T08:00:12.567Z,99480
2023-04-03T08:02:06.030Z,99480
2023-04-03T08:04:06.491Z,99480
2023-04-03T08:06:11.891Z,99480
2023-04-03T08:08:08.022Z,99480
2023-04-03T08:10:07.819Z,99480
2023-04-03T08:12:07.290Z,99480
2023-04-03T08:14:07.563Z,99480
2023-04-03T08:16:11.243Z,99480
2023-04-03T08:18:08.048Z,99480
2023-04-03T08:20:10.782Z,99480
2023-04-03T08:22:08.457Z,99480
2023-04-03T08:24:09.368Z,99480
2023-04-03T08:26:10.357Z,99480
2023-04-03T08:28:10.514Z,99480
2023-04-03T08:30:09.994Z,99480
2023-04-03T08:32:09.683Z,99480
2023-04-03T08:34:09.836Z,99480
2023-04-03T08:36:19.077Z,99480
2023-04-03T08:38:10.882Z,99480
2023-04-03T08:40:14.991Z,99480
2023-04-03T08:42:19.646Z,99480
2023-04-03T08:44:20.858Z,99480
2023-04-03T08:46:14.760Z,99480
2023-04-03T08:48:16.068Z,99480
2023-04-03T08:50:15.774Z,99480
2023-04-03T08:52:14.616Z,99480
2023-04-03T08:54:24.302Z,99480
2023-04-03T08:56:15.671Z,99480
2023-04-03T08:58:16.243Z,99480
2023-04-03T09:00:20.150Z,99480
2023-04-03T09:02:27.141Z,99480
2023-04-03T09:04:17.696Z,99480
2023-04-03T09:06:18.608Z,99480
2023-04-03T09:08:22.554Z,99480
2023-04-03T09:10:17.367Z,99480
2023-04-03T09:12:21.355Z,99480
2023-04-03T09:14:24.158Z,99480
2023-04-03T09:16:26.164Z,99480
2023-04-03T09:18:20.933Z,99480
2023-04-03T09:20:24.629Z,99480
2023-04-03T09:22:20.488Z,99480
2023-04-03T09:24:17.441Z,99480
2023-04-03T09:26:21.532Z,99480
2023-04-03T09:28:16.561Z,99480
2023-04-03T09:30:19.255Z,99480
2023-04-03T09:32:24.099Z,99480
2023-04-03T09:34:23.312Z,99480
2023-04-03T09:36:40.972Z,99480
2023-04-03T09:38:21.970Z,99480
2023-04-03T09:40:35.034Z,99490
2023-04-03T09:42:21.338Z,99490
2023-04-03T09:44:22.592Z,99490
2023-04-03T09:46:25.913Z,99490
2023-04-03T09:48:21.412Z,99490
2023-04-03T09:50:21.851Z,99490
2023-04-03T09:52:24.053Z,99490
2023-04-03T09:54:35.704Z,99490
2023-04-03T09:56:24.558Z,99490
2023-04-03T09:58:27.033Z,99490
2023-04-03T10:00:23.802Z,99490
2023-04-03T10:02:31.266Z,99490
2023-04-03T10:04:20.948Z,99490
2023-04-03T10:06:23.648Z,99490
2023-04-03T10:08:24.485Z,99490
2023-04-03T10:10:22.981Z,99490
2023-04-03T10:12:22.028Z,99490
2023-04-03T10:14:22.126Z,99490
2023-04-03T10:16:27.609Z,99490
2023-04-03T10:18:32.906Z,99500
2023-04-03T10:20:33.686Z,99500
2023-04-03T10:22:32.809Z,99500
2023-04-03T10:24:28.829Z,99500
2023-04-03T10:26:35.986Z,99500
2023-04-03T10:28:33.033Z,99510
2023-04-03T10:30:34.312Z,99510
2023-04-03T10:32:42.154Z,99510
2023-04-03T10:34:30.207Z,99510
2023-04-03T10:36:34.817Z,99510
2023-04-03T10:38:33.724Z,99510
2023-04-03T10:40:34.184Z,99510
2023-04-03T10:42:32.293Z,99510
2023-04-03T10:44:37.041Z,99510
2023-04-03T10:46:33.685Z,99510
2023-04-03T10:48:38.359Z,99510
2023-04-03T10:50:38.464Z,99510
2023-04-03T10:52:38.837Z,99510
2023-04-03T10:54:36.525Z,99510
2023-04-03T10:56:36.411Z,99510
2023-04-03T10:58:35.465Z,99510
2023-04-03T11:00:37.073Z,99510
2023-04-03T11:02:32.091Z,99510
2023-04-03T11:04:34.778Z,99510
2023-04-03T11:06:36.196Z,99510
2023-04-03T11:08:35.678Z,99510
2023-04-03T11:10:40.869Z,99510
2023-04-03T11:12:41.093Z,99510
2023-04-03T11:14:32.642Z,99510
2023-04-03T11:16:43.608Z,99510
2023-04-03T11:18:38.494Z,99510
2023-04-03T11:20:33.431Z,99510
2023-04-03T11:22:33.869Z,99510
2023-04-03T11:24:34.269Z,99510
2023-04-03T11:26:37.316Z,99510
2023-04-03T11:28:32.141Z,99520
2023-04-03T11:30:40.290Z,99520
2023-04-03T11:32:49.163Z,99520
2023-04-03T11:34:37.028Z,99520
2023-04-03T11:36:39.667Z,99520
2023-04-03T11:38:36.874Z,99520
2023-04-03T11:40:37.203Z,99520
2023-04-03T11:42:38.942Z,99520
2023-04-03T11:44:37.850Z,99520
2023-04-03T11:46:50.085Z,99520
2023-04-03T11:48:50.699Z,99520
2023-04-03T11:50:45.129Z,99520
2023-04-03T11:52:58.255Z,99520
2023-04-03T11:54:46.096Z,99520
2023-04-03T11:56:35.730Z,99520
2023-04-03T11:58:35.959Z,99520
2023-04-03T12:00:52.561Z,99520
2023-04-03T12:02:51.241Z,99520
2023-04-03T12:04:36.777Z,99520
2023-04-03T12:06:54.005Z,99520
2023-04-03T12:08:47.016Z,99520
2023-04-03T12:10:38.207Z,99520
2023-04-03T12:12:40.571Z,99520
2023-04-03T12:14:38.077Z,99520
2023-04-03T12:16:44.907Z,99510
2023-04-03T12:18:43.989Z,99510
2023-04-03T12:20:53.476Z,99510
2023-04-03T12:22:53.953Z,99510
2023-04-03T12:24:40.705Z,99510
2023-04-03T12:26:48.817Z,99510
2023-04-03T12:28:40.389Z,99510
2023-04-03T12:30:43.857Z,99510
2023-04-03T12:32:54.072Z,99510
2023-04-03T12:35:04.037Z,99510
2023-04-03T12:36:51.137Z,99510
2023-04-03T12:38:58.382Z,99510
2023-04-03T12:40:49.899Z,99510
2023-04-03T12:43:04.037Z,99510
2023-04-03T12:44:54.325Z,99510
2023-04-03T12:46:45.882Z,99510
2023-04-03T12:48:49.572Z,99510
2023-04-03T12:50:46.057Z,99510
2023-04-03T12:52:48.003Z,99520
2023-04-03T12:54:45.915Z,99520
2023-04-03T12:56:43.327Z,99520
2023-04-03T12:58:43.695Z,99520
2023-04-03T13:00:43.805Z,99520
2023-04-03T13:02:45.662Z,99520
2023-04-03T13:04:45.641Z,99520
2023-04-03T13:06:45.160Z,99520
2023-04-03T13:08:50.260Z,99520
2023-04-03T13:10:53.440Z,99530
2023-04-03T13:12:49.227Z,99530
2023-04-03T13:14:52.869Z,99530
2023-04-03T13:16:54.264Z,99530
2023-04-03T13:18:51.759Z,99530
2023-04-03T13:20:49.970Z,99530
2023-04-03T13:22:53.581Z,99530
2023-04-03T13:24:49.511Z,99530
2023-04-03T13:26:46.885Z,99530
2023-04-03T13:28:47.719Z,99530
2023-04-03T13:30:58.478Z,99530
2023-04-03T13:32:47.823Z,99530
2023-04-03T13:34:47.882Z,99530
2023-04-03T13:36:57.412Z,99530
2023-04-03T13:38:59.689Z,99530
2023-04-03T13:40:50.139Z,99530
2023-04-03T13:43:00.134Z,99530
2023-04-03T13:44:48.952Z,99530
2023-04-03T13:46:50.269Z,99530
2023-04-03T13:48:52.206Z,99530
2023-04-03T13:50:59.013Z,99530
2023-04-03T13:52:52.837Z,99530
2023-04-03T13:54:55.271Z,99530
2023-04-03T13:56:54.602Z,99530
2023-04-03T13:58:56.401Z,99530
2023-04-03T14:00:53.770Z,99530
2023-04-03T14:02:54.354Z,99530
2023-04-03T14:04:54.288Z,99530
2023-04-03T14:06:51.277Z,99530
2023-04-03T14:08:51.934Z,99530
2023-04-03T14:10:51.942Z,99530
2023-04-03T14:12:51.821Z,99530
2023-04-03T14:14:52.541Z,99530
2023-04-03T14:16:54.986Z,99530
2023-04-03T14:18:52.528Z,99530
2023-04-03T14:20:52.574Z,99530
2023-04-03T14:22:53.275Z,99530
2023-04-03T14:24:53.456Z,99530
2023-04-03T14:26:54.832Z,99530
2023-04-03T14:28:55.097Z,99530
2023-04-03T14:30:53.649Z,99530
2023-04-03T14:32:54.428Z,99530
2023-04-03T14:34:54.078Z,99530
2023-04-03T14:36:54.261Z,99530
2023-04-03T14:38:55.513Z,99530
2023-04-03T14:40:58.947Z,99530
2023-04-03T14:42:55.520Z,99530
2023-04-03T14:44:55.529Z,99530
2023-04-03T14:46:57.157Z,99530
2023-04-03T14:48:55.469Z,99530
2023-04-03T14:51:05.204Z,99530
2023-04-03T14:52:58.598Z,99530
2023-04-03T14:54:57.298Z,99530
2023-04-03T14:56:58.856Z,99530
2023-04-03T14:59:02.406Z,99530
2023-04-03T15:00:56.662Z,99530
2023-04-03T15:02:57.121Z,99530
2023-04-03T15:04:57.688Z,99540
2023-04-03T15:06:57.217Z,99540
2023-04-03T15:08:57.595Z,99540
2023-04-03T15:10:58.730Z,99540
2023-04-03T15:12:58.401Z,99530
2023-04-03T15:15:02.045Z,99530
2023-04-03T15:16:58.286Z,99530
2023-04-03T15:18:58.441Z,99530
2023-04-03T15:20:58.635Z,99530
2023-04-03T15:22:59.147Z,99530
2023-04-03T15:24:59.021Z,99530
2023-04-03T15:27:01.140Z,99540
2023-04-03T15:28:59.444Z,99540
2023-04-03T15:30:59.961Z,99540
2023-04-03T15:32:59.722Z,99540
2023-04-03T15:35:00.352Z,99540
2023-04-03T15:37:00.277Z,99540
2023-04-03T15:39:00.205Z,99540
2023-04-03T15:41:00.424Z,99540
2023-04-03T15:43:00.690Z,99540
2023-04-03T15:45:00.727Z,99540
2023-04-03T15:47:01.997Z,99550
2023-04-03T15:49:01.892Z,99550
2023-04-03T15:51:01.415Z,99560
2023-04-03T15:53:01.959Z,99560
2023-04-03T15:55:02.610Z,99560
2023-04-03T15:57:01.828Z,99560
2023-04-03T15:59:02.095Z,99560
2023-04-03T16:01:02.592Z,99560
2023-04-03T16:03:08.644Z,99560
2023-04-03T16:05:03.349Z,99560
2023-04-03T16:07:03.376Z,99560
2023-04-03T16:09:02.995Z,99560
2023-04-03T16:11:03.449Z,99560
2023-04-03T16:13:03.723Z,99560
2023-04-03T16:15:04.623Z,99560
2023-04-03T16:17:03.715Z,99570
2023-04-03T16:19:04.444Z,99570
2023-04-03T16:21:03.931Z,99570
2023-04-03T16:23:03.963Z,99570
2023-04-03T16:25:04.895Z,99570
2023-04-03T16:27:04.126Z,99570
2023-04-03T16:29:04.331Z,99570
2023-04-03T16:31:06.579Z,99570
2023-04-03T16:33:04.676Z,99570
2023-04-03T16:35:05.733Z,99570
2023-04-03T16:37:04.902Z,99580
2023-04-03T16:39:05.009Z,99580
2023-04-03T16:41:05.282Z,99580
2023-04-03T16:43:05.365Z,99580
2023-04-03T16:45:06.525Z,99580
2023-04-03T16:47:06.453Z,99580
2023-04-03T16:49:05.863Z,99580
2023-04-03T16:51:05.784Z,99580
2023-04-03T16:53:06.079Z,99580
2023-04-03T16:55:06.841Z,99580
2023-04-03T16:57:06.257Z,99580
2023-04-03T16:59:06.469Z,99580
2023-04-03T17:01:11.343Z,99580
2023-04-03T17:03:06.588Z,99580
2023-04-03T17:05:07.549Z,99580
2023-04-03T17:07:06.763Z,99580
2023-04-03T17:09:07.920Z,99580
2023-04-03T17:11:07.219Z,99580
2023-04-03T17:13:07.255Z,99580
2023-04-03T17:15:08.100Z,99580
2023-04-03T17:17:07.759Z,99580
2023-04-03T17:19:07.576Z,99590
2023-04-03T17:21:09.190Z,99590
2023-04-03T17:23:17.832Z,99590
2023-04-03T17:25:08.541Z,99590
2023-04-03T17:27:07.985Z,99590
2023-04-03T17:29:08.434Z,99590
2023-04-03T17:31:08.400Z,99590
2023-04-03T17:33:08.880Z,99590
2023-04-03T17:35:11.134Z,99590
2023-04-03T17:37:08.740Z,99590
2023-04-03T17:39:08.849Z,99590
2023-04-03T17:41:09.378Z,99590
2023-04-03T17:43:08.860Z,99590
2023-04-03T17:45:09.708Z,99590
2023-04-03T17:47:09.037Z,99590
2023-04-03T17:49:09.147Z,99590
2023-04-03T17:51:11.943Z,99590
2023-04-03T17:53:09.757Z,99590
2023-04-03T17:55:09.634Z,99590
2023-04-03T17:57:09.722Z,99590
2023-04-03T17:59:09.849Z,99590
2023-04-03T18:01:11.930Z,99590
2023-04-03T18:03:10.040Z,99590
2023-04-03T18:05:10.350Z,99590
2023-04-03T18:07:10.485Z,99590
2023-04-03T18:09:14.330Z,99590
2023-04-03T18:11:11.115Z,99590
2023-04-03T18:13:10.537Z,99590
2023-04-03T18:15:11.659Z,99590
2023-04-03T18:17:11.222Z,99590
2023-04-03T18:21:13.390Z,99590
2023-04-03T18:23:11.271Z,99590
2023-04-03T18:25:11.274Z,99590
2023-04-03T18:27:13.814Z,99590
2023-04-03T18:29:12.131Z,99590
2023-04-03T18:31:15.993Z,99590
2023-04-03T18:33:11.759Z,99590
2023-04-03T18:35:11.978Z,99590
2023-04-03T18:37:11.989Z,99590
2023-04-03T18:39:12.125Z,99590
2023-04-03T18:41:12.824Z,99590
2023-04-03T18:43:13.643Z,99580
2023-04-03T18:45:15.808Z,99580
2023-04-03T18:47:12.896Z,99580
2023-04-03T18:49:13.541Z,99580
2023-04-03T18:51:13.540Z,99580
2023-04-03T18:53:12.881Z,99580
2023-04-03T18:55:12.903Z,99580
2023-04-03T18:57:13.008Z,99580
2023-04-03T18:59:13.956Z,99580
2023-04-03T19:01:13.456Z,99580
2023-04-03T19:03:13.562Z,99580
2023-04-03T19:05:15.439Z,99580
2023-04-03T19:07:13.588Z,99580
2023-04-03T19:09:14.014Z,99580
2023-04-03T19:11:13.908Z,99580
2023-04-03T19:13:13.919Z,99580
2023-04-03T19:15:14.841Z,99580
2023-04-03T19:17:14.221Z,99580
2023-04-03T19:19:14.292Z,99580
2023-04-03T19:21:14.382Z,99580
2023-04-03T19:23:14.408Z,99580
2023-04-03T19:25:14.790Z,99580
2023-04-03T19:27:14.640Z,99580
2023-04-03T19:29:14.909Z,99580
2023-04-03T19:31:17.157Z,99580
2023-04-03T19:33:14.989Z,99580
2023-04-03T19:35:15.083Z,99580
2023-04-03T19:37:15.238Z,99580
2023-04-03T19:39:15.828Z,99580
2023-04-03T19:41:19.126Z,99580
2023-04-03T19:43:16.551Z,99580
2023-04-03T19:45:15.705Z,99580
2023-04-03T19:47:16.146Z,99580
2023-04-03T19:49:15.849Z,99580
2023-04-03T19:51:16.016Z,99580
2023-04-03T19:53:16.048Z,99580
2023-04-03T19:55:16.264Z,99570
2023-04-03T19:57:16.871Z,99570
2023-04-03T19:59:16.802Z,99560
2023-04-03T20:01:16.627Z,99560
2023-04-03T20:03:16.661Z,99560
2023-04-03T20:05:17.341Z,99560
2023-04-03T20:07:16.898Z,99560
2023-04-03T20:09:17.107Z,99560
2023-04-03T20:11:17.358Z,99560
2023-04-03T20:13:17.348Z,99560
2023-04-03T20:15:17.722Z,99560
2023-04-03T20:17:17.489Z,99560
2023-04-03T20:19:17.574Z,99560
2023-04-03T20:21:17.791Z,99560
2023-04-03T20:23:17.926Z,99560
2023-04-03T20:25:39.059Z,99560
2023-04-03T20:27:18.109Z,99560
2023-04-03T20:29:18.331Z,99560
2023-04-03T20:31:18.760Z,99560
2023-04-03T20:33:18.759Z,99560
2023-04-03T20:35:18.516Z,99560
2023-04-03T20:37:18.695Z,99560
2023-04-03T20:39:19.224Z,99560
2023-04-03T20:41:19.081Z,99560
2023-04-03T20:43:19.083Z,99560
2023-04-03T20:45:19.163Z,99560
2023-04-03T20:47:19.281Z,99560
2023-04-03T20:49:19.849Z,99560
2023-04-03T20:51:20.726Z,99550
2023-04-03T20:53:19.630Z,99550
2023-04-03T20:55:20.438Z,99550
2023-04-03T20:57:19.765Z,99550
2023-04-03T20:59:19.914Z,99540
2023-04-03T21:01:22.055Z,99540
2023-04-03T21:03:20.356Z,99540
2023-04-03T21:05:20.274Z,99540
2023-04-03T21:07:49.480Z,99540
2023-04-03T21:09:49.684Z,99540
2023-04-03T21:11:49.908Z,99540
2023-04-03T21:13:49.777Z,99540
2023-04-03T21:15:49.920Z,99540
2023-04-03T21:17:20.034Z,99540
2023-04-03T21:19:20.817Z,99540
2023-04-03T21:21:22.992Z,99540
2023-04-03T21:23:21.259Z,99540
2023-04-03T21:25:21.193Z,99540
2023-04-03T21:27:21.315Z,99540
2023-04-03T21:29:21.327Z,99540
2023-04-03T21:31:22.399Z,99540
2023-04-03T21:33:21.557Z,99550
2023-04-03T21:35:21.685Z,99550
2023-04-03T21:37:21.665Z,99550
2023-04-03T21:39:22.680Z,99550
2023-04-03T21:41:22.083Z,99550
2023-04-03T21:43:22.058Z,99550
2023-04-03T21:45:22.180Z,99550
2023-04-03T21:47:22.219Z,99550
2023-04-03T21:49:24.147Z,99550
2023-04-03T21:51:22.691Z,99550
2023-04-03T21:53:23.042Z,99550
2023-04-03T21:55:22.678Z,99550
2023-04-03T21:57:22.776Z,99550
2023-04-03T21:59:23.034Z,99550
2023-04-03T22:01:22.982Z,99550
2023-04-03T22:03:23.235Z,99550
2023-04-03T22:05:23.258Z,99550
2023-04-03T22:07:23.217Z,99550
2023-04-03T22:09:23.421Z,99550
2023-04-03T22:11:23.699Z,99550
2023-04-03T22:13:23.454Z,99550
2023-04-03T22:15:23.579Z,99550
2023-04-03T22:17:23.728Z,99550
2023-04-03T22:19:23.748Z,99550
2023-04-03T22:21:23.901Z,99550
2023-04-03T22:23:24.739Z,99540
2023-04-03T22:25:24.084Z,99540
2023-04-03T22:27:24.176Z,99540
2023-04-03T22:29:24.342Z,99540
2023-04-03T22:31:24.372Z,99540
2023-04-03T22:33:24.459Z,99540
2023-04-03T22:35:24.743Z,99540
2023-04-03T22:37:26.147Z,99540
2023-04-03T22:39:24.617Z,99540
2023-04-03T22:41:24.805Z,99540
2023-04-03T22:43:25.321Z,99540
2023-04-03T22:45:24.983Z,99540
2023-04-03T22:47:25.090Z,99540
2023-04-03T22:49:25.155Z,99540
2023-04-03T22:51:25.162Z,99540
2023-04-03T22:53:25.282Z,99540
2023-04-03T22:55:25.726Z,99540
2023-04-03T22:57:25.350Z,99540
2023-04-03T22:59:25.564Z,99540
2023-04-03T23:01:26.075Z,99540
2023-04-03T23:03:25.557Z,99540
2023-04-03T23:05:25.762Z,99540
2023-04-03T23:07:25.719Z,99540
2023-04-03T23:09:25.703Z,99540
2023-04-03T23:11:26.132Z,99540
2023-04-03T23:13:26.432Z,99540
2023-04-03T23:15:26.104Z,99540
2023-04-03T23:17:26.152Z,99540
2023-04-03T23:19:26.119Z,99540
2023-04-03T23:21:26.380Z,99540
2023-04-03T23:23:26.400Z,99530
2023-04-03T23:25:26.306Z,99530
2023-04-03T23:27:26.318Z,99520
2023-04-03T23:29:26.371Z,99520
2023-04-03T23:31:26.683Z,99520
2023-04-03T23:33:26.593Z,99520
2023-04-03T23:35:26.598Z,99520
2023-04-03T23:37:27.311Z,99520
2023-04-03T23:39:26.657Z,99520
2023-04-03T23:41:26.708Z,99520
2023-04-03T23:43:26.828Z,99520
2023-04-03T23:45:26.755Z,99520
2023-04-03T23:47:26.835Z,99520
2023-04-03T23:49:26.893Z,99520
2023-04-03T23:51:26.932Z,99520
2023-04-03T23:53:26.986Z,99520
2023-04-03T23:55:27.191Z,99520
2023-04-03T23:57:27.068Z,99520
2023-04-03T23:59:27.278Z,99520
